createdAt,value
2018-05-14T00:01:27.303Z,10.33
2018-05-14T00:03:55.640Z,11.67
2018-05-14T00:06:23.973Z,11.43
2018-05-14T00:08:52.251Z,11.53
2018-05-14T00:11:21.412Z,11.10
2018-05-14T00:13:49.696Z,12.00
2018-05-14T00:16:18.060Z,11.80
2018-05-14T00:18:46.664Z,12.50
2018-05-14T00:21:14.927Z,12.60
2018-05-14T00:23:43.236Z,11.50
2018-05-14T00:26:11.483Z,11.30
2018-05-14T00:28:41.017Z,11.43
2018-05-14T00:31:09.272Z,10.63
2018-05-14T00:33:37.536Z,9.63
2018-05-14T00:36:05.811Z,9.17
2018-05-14T00:38:34.081Z,10.90
2018-05-14T00:41:02.332Z,10.00
2018-05-14T00:43:30.619Z,9.73
2018-05-14T00:45:58.947Z,8.07
2018-05-14T00:48:27.183Z,7.93
2018-05-14T00:50:55.500Z,8.30
2018-05-14T00:53:23.747Z,8.10
2018-05-14T00:55:52.050Z,8.20
2018-05-14T00:58:20.308Z,8.50
2018-05-14T01:00:48.572Z,8.13
2018-05-14T01:03:17.333Z,9.70
2018-05-14T01:05:46.385Z,11.30
2018-05-14T01:08:14.624Z,9.13
2018-05-14T01:10:42.881Z,10.10
2018-05-14T01:13:11.330Z,11.07
2018-05-14T01:15:39.583Z,10.23
2018-05-14T01:18:07.836Z,10.50
2018-05-14T01:20:36.112Z,11.70
2018-05-14T01:23:04.364Z,12.70
2018-05-14T01:25:34.556Z,11.87
2018-05-14T01:28:03.499Z,11.03
2018-05-14T01:30:31.705Z,11.37
2018-05-14T01:32:59.952Z,12.33
2018-05-14T01:35:28.448Z,14.40
2018-05-14T01:37:56.712Z,12.30
2018-05-14T01:40:24.979Z,12.57
2018-05-14T01:42:53.263Z,12.57
2018-05-14T01:45:21.637Z,11.60
2018-05-14T01:47:49.884Z,11.87
2018-05-14T01:50:18.186Z,12.20
2018-05-14T01:52:46.436Z,14.20
2018-05-14T01:55:15.458Z,14.60
2018-05-14T01:57:44.180Z,13.20
2018-05-14T02:00:12.423Z,13.70
2018-05-14T02:02:40.669Z,15.10
2018-05-14T02:05:09.283Z,16.50
2018-05-14T02:07:37.523Z,14.50
2018-05-14T02:10:06.550Z,15.70
2018-05-14T02:12:34.832Z,15.67
2018-05-14T02:15:03.088Z,13.87
2018-05-14T02:17:32.103Z,14.67
2018-05-14T02:20:00.773Z,17.17
2018-05-14T02:22:29.027Z,19.17
2018-05-14T02:24:57.276Z,19.20
2018-05-14T02:27:25.568Z,19.33
2018-05-14T02:29:53.814Z,17.30
2018-05-14T02:32:22.099Z,16.77
2018-05-14T02:34:50.365Z,17.43
2018-05-14T02:37:18.616Z,20.07
2018-05-14T02:39:46.872Z,19.13
2018-05-14T02:42:15.644Z,22.07
2018-05-14T02:44:43.911Z,23.37
2018-05-14T02:47:12.164Z,22.70
2018-05-14T02:49:40.440Z,22.87
2018-05-14T02:52:08.688Z,23.07
2018-05-14T02:54:36.964Z,22.10
2018-05-14T02:57:05.362Z,20.40
2018-05-14T02:59:34.115Z,19.70
2018-05-14T03:02:02.368Z,19.80
2018-05-14T03:04:31.111Z,21.37
2018-05-14T03:07:00.119Z,19.73
2018-05-14T03:09:28.375Z,19.60
2018-05-14T03:11:56.648Z,18.17
2018-05-14T03:14:24.891Z,19.97
2018-05-14T03:16:53.156Z,22.90
2018-05-14T03:19:21.424Z,21.97
2018-05-14T03:21:49.684Z,21.20
2018-05-14T03:24:17.936Z,21.40
2018-05-14T03:26:46.443Z,21.67
2018-05-14T03:29:14.701Z,21.07
2018-05-14T03:31:42.945Z,20.40
2018-05-14T03:34:11.326Z,21.40
2018-05-14T03:36:40.335Z,21.90
2018-05-14T03:39:08.591Z,24.70
2018-05-14T03:41:37.783Z,22.73
2018-05-14T03:44:06.063Z,23.40
2018-05-14T03:46:34.318Z,22.67
2018-05-14T03:49:02.643Z,23.20
2018-05-14T03:51:30.903Z,23.60
2018-05-14T03:54:00.823Z,27.00
2018-05-14T03:56:29.867Z,21.90
2018-05-14T03:59:09.959Z,22.63
2018-05-14T04:01:50.128Z,23.43
2018-05-14T04:04:44.093Z,23.67
2018-05-14T04:07:12.600Z,25.70
2018-05-14T04:09:40.856Z,24.80
2018-05-14T04:12:09.107Z,24.30
2018-05-14T04:14:37.383Z,23.33
2018-05-14T04:17:05.638Z,23.57
2018-05-14T04:19:34.735Z,23.20
2018-05-14T04:22:03.013Z,23.80
2018-05-14T04:24:31.352Z,22.87
2018-05-14T04:26:59.532Z,23.27
2018-05-14T04:29:27.864Z,24.03
2018-05-14T04:31:56.132Z,21.80
2018-05-14T04:34:24.777Z,21.53
2018-05-14T04:36:53.048Z,24.10
2018-05-14T04:39:21.299Z,24.40
2018-05-14T04:41:50.332Z,23.80
2018-05-14T04:44:18.600Z,23.57
2018-05-14T04:46:46.864Z,25.97
2018-05-14T04:49:15.120Z,21.23
2018-05-14T04:51:45.391Z,20.00
2018-05-14T04:54:13.643Z,22.50
2018-05-14T04:56:41.953Z,22.90
2018-05-14T04:59:10.286Z,23.93
2018-05-14T05:01:38.514Z,24.20
2018-05-14T05:04:06.763Z,23.17
2018-05-14T05:06:35.040Z,22.40
2018-05-14T05:09:03.697Z,25.63
2018-05-14T05:11:32.792Z,28.27
2018-05-14T05:14:01.132Z,26.23
2018-05-14T05:16:29.396Z,26.90
2018-05-14T05:18:57.656Z,27.63
2018-05-14T05:21:25.964Z,28.50
2018-05-14T05:23:54.225Z,27.40
2018-05-14T05:26:22.582Z,26.50
2018-05-14T05:28:50.893Z,28.63
2018-05-14T05:31:19.140Z,28.43
2018-05-14T05:33:47.403Z,25.80
2018-05-14T05:36:16.231Z,25.47
2018-05-14T05:38:44.471Z,25.50
2018-05-14T05:41:12.732Z,25.90
2018-05-14T05:43:41.174Z,26.93
2018-05-14T05:46:09.416Z,24.60
2018-05-14T05:48:37.683Z,24.20
2018-05-14T05:51:06.308Z,24.90
2018-05-14T05:53:34.548Z,22.73
2018-05-14T05:56:02.820Z,24.13
2018-05-14T05:58:31.731Z,21.63
2018-05-14T06:00:59.972Z,26.37
2018-05-14T06:03:28.223Z,22.30
2018-05-14T06:05:56.591Z,22.60
2018-05-14T06:08:25.072Z,23.47
2018-05-14T06:10:53.551Z,23.33
2018-05-14T06:13:21.828Z,25.03
2018-05-14T06:15:50.098Z,22.03
2018-05-14T06:18:18.833Z,23.93
2018-05-14T06:20:47.660Z,24.03
2018-05-14T06:23:15.915Z,23.80
2018-05-14T06:25:44.200Z,23.63
2018-05-14T06:28:12.476Z,24.27
2018-05-14T06:30:41.443Z,25.87
2018-05-14T06:33:10.455Z,26.50
2018-05-14T06:35:39.424Z,26.10
2018-05-14T06:38:07.596Z,25.33
2018-05-14T06:40:35.852Z,24.93
2018-05-14T06:43:04.680Z,24.20
2018-05-14T06:45:32.943Z,24.27
2018-05-14T06:48:01.200Z,24.00
2018-05-14T06:50:30.240Z,23.97
2018-05-14T06:52:58.504Z,23.90
2018-05-14T06:55:26.763Z,22.37
2018-05-14T06:57:56.379Z,24.37
2018-05-14T07:00:25.434Z,21.80
2018-05-14T07:02:53.695Z,22.70
2018-05-14T07:05:22.179Z,20.73
2018-05-14T07:07:50.436Z,20.13
2018-05-14T07:10:20.197Z,20.50
2018-05-14T07:12:48.692Z,21.40
2018-05-14T07:15:16.952Z,22.90
2018-05-14T07:17:45.213Z,19.87
2018-05-14T07:20:13.483Z,21.53
2018-05-14T07:22:42.366Z,21.23
2018-05-14T07:25:10.658Z,20.03
2018-05-14T07:27:38.988Z,19.57
2018-05-14T07:30:07.286Z,19.87
2018-05-14T07:32:35.502Z,18.30
2018-05-14T07:35:03.936Z,17.37
2018-05-14T07:37:32.196Z,18.93
2018-05-14T07:40:00.537Z,18.60
2018-05-14T07:42:28.824Z,19.87
2018-05-14T07:44:57.091Z,17.07
2018-05-14T07:47:25.342Z,15.73
2018-05-14T07:49:54.905Z,16.50
2018-05-14T07:52:23.151Z,17.07
2018-05-14T07:54:51.456Z,14.10
2018-05-14T07:57:19.865Z,15.70
2018-05-14T07:59:48.924Z,15.40
2018-05-14T08:02:17.985Z,15.50
2018-05-14T08:04:46.299Z,10.07
2018-05-14T08:07:15.334Z,12.40
2018-05-14T08:09:43.568Z,7.83
2018-05-14T08:12:13.035Z,9.60
2018-05-14T08:14:41.619Z,8.10
2018-05-14T08:17:10.132Z,8.63
2018-05-14T08:19:38.404Z,7.60
2018-05-14T08:22:07.423Z,8.37
2018-05-14T08:24:35.679Z,7.80
2018-05-14T08:27:03.987Z,8.00
2018-05-14T08:29:32.240Z,8.90
2018-05-14T08:32:01.247Z,7.83
2018-05-14T08:34:30.084Z,7.40
2018-05-14T08:36:58.492Z,8.93
2018-05-14T08:39:26.591Z,8.10
2018-05-14T08:41:54.877Z,6.80
2018-05-14T08:44:23.169Z,9.47
2018-05-14T08:46:52.144Z,7.73
2018-05-14T08:49:20.420Z,7.77
2018-05-14T08:51:48.687Z,7.80
2018-05-14T08:54:16.967Z,9.10
2018-05-14T08:56:45.526Z,8.70
2018-05-14T08:59:13.771Z,7.40
2018-05-14T09:01:42.019Z,8.37
2018-05-14T09:04:10.463Z,8.10
2018-05-14T09:06:40.600Z,8.07
2018-05-14T09:09:08.880Z,7.90
2018-05-14T09:11:37.135Z,8.73
2018-05-14T09:14:06.150Z,7.13
2018-05-14T09:16:34.404Z,7.90
2018-05-14T09:19:02.992Z,6.70
2018-05-14T09:21:31.282Z,6.13
2018-05-14T09:24:01.457Z,6.47
2018-05-14T09:26:29.725Z,6.40
2018-05-14T09:28:57.963Z,5.70
2018-05-14T09:31:26.295Z,6.83
2018-05-14T09:33:54.556Z,6.63
2018-05-14T09:36:22.832Z,7.00
2018-05-14T09:38:51.084Z,7.10
2018-05-14T09:41:20.831Z,6.33
2018-05-14T09:43:49.111Z,7.33
2018-05-14T09:46:17.367Z,6.53
2018-05-14T09:48:45.631Z,6.70
2018-05-14T09:51:13.881Z,6.43
2018-05-14T09:53:42.309Z,6.80
2018-05-14T09:56:10.572Z,6.57
2018-05-14T09:58:38.816Z,6.43
2018-05-14T10:01:07.232Z,6.57
2018-05-14T10:03:35.539Z,6.30
2018-05-14T10:06:04.282Z,6.20
2018-05-14T10:08:32.625Z,6.40
2018-05-14T10:11:01.659Z,5.93
2018-05-14T10:13:29.900Z,6.70
2018-05-14T10:15:58.664Z,7.03
2018-05-14T10:18:27.171Z,6.00
2018-05-14T10:20:55.468Z,7.00
2018-05-14T10:23:23.711Z,6.33
2018-05-14T10:25:52.363Z,5.57
2018-05-14T10:28:21.227Z,6.20
2018-05-14T10:30:49.464Z,5.60
2018-05-14T10:33:17.732Z,5.90
2018-05-14T10:35:45.975Z,6.27
2018-05-14T10:38:14.220Z,6.10
2018-05-14T10:40:43.430Z,5.60
2018-05-14T10:43:11.631Z,6.07
2018-05-14T10:45:39.869Z,6.10
2018-05-14T10:48:08.202Z,5.23
2018-05-14T10:50:36.676Z,5.40
2018-05-14T10:53:04.895Z,5.53
2018-05-14T10:55:33.176Z,5.50
2018-05-14T10:58:01.427Z,5.50
2018-05-14T11:00:30.455Z,5.80
2018-05-14T11:02:58.832Z,6.13
2018-05-14T11:05:27.084Z,6.00
2018-05-14T11:07:55.352Z,6.23
2018-05-14T11:10:24.318Z,5.80
2018-05-14T11:12:52.786Z,4.93
2018-05-14T11:15:21.052Z,5.10
2018-05-14T11:17:49.333Z,5.13
2018-05-14T11:20:17.574Z,4.50
2018-05-14T11:22:46.006Z,4.77
2018-05-14T11:25:15.348Z,3.90
2018-05-14T11:27:43.792Z,5.00
2018-05-14T11:30:12.530Z,4.23
2018-05-14T11:32:41.114Z,4.47
2018-05-14T11:35:09.555Z,3.97
2018-05-14T11:37:38.477Z,4.13
2018-05-14T11:40:07.718Z,4.03
2018-05-14T11:42:35.948Z,4.10
2018-05-14T11:45:04.964Z,4.33
2018-05-14T11:47:33.286Z,3.97
2018-05-14T11:50:01.525Z,4.47
2018-05-14T11:52:29.769Z,3.87
2018-05-14T11:54:58.111Z,3.83
2018-05-14T11:57:26.352Z,4.73
2018-05-14T11:59:54.596Z,4.10
2018-05-14T12:02:23.628Z,3.73
2018-05-14T12:04:51.867Z,3.70
2018-05-14T12:07:25.091Z,3.83
2018-05-14T12:09:53.333Z,4.20
2018-05-14T12:12:22.408Z,4.00
2018-05-14T12:14:50.933Z,4.17
2018-05-14T12:17:19.388Z,4.00
2018-05-14T12:19:48.388Z,4.67
2018-05-14T12:22:17.424Z,4.57
2018-05-14T12:24:46.248Z,3.87
2018-05-14T12:27:15.750Z,4.33
2018-05-14T12:29:44.012Z,3.90
2018-05-14T12:32:12.252Z,3.80
2018-05-14T12:34:40.508Z,4.07
2018-05-14T12:37:11.348Z,3.90
2018-05-14T12:39:39.687Z,4.23
2018-05-14T12:42:07.998Z,3.80
2018-05-14T12:44:38.738Z,4.47
2018-05-14T12:47:07.084Z,4.57
2018-05-14T12:49:35.788Z,4.60
2018-05-14T12:52:04.072Z,4.63
2018-05-14T12:54:36.030Z,4.33
2018-05-14T12:57:04.249Z,4.50
2018-05-14T12:59:32.576Z,4.27
2018-05-14T13:02:00.832Z,4.33
2018-05-14T13:04:29.438Z,4.90
2018-05-14T13:06:57.760Z,5.00
2018-05-14T13:09:28.613Z,4.97
2018-05-14T13:11:56.836Z,4.63
2018-05-14T13:14:25.131Z,4.13
2018-05-14T13:16:53.968Z,5.17
2018-05-14T13:19:22.216Z,4.80
2018-05-14T13:21:51.464Z,5.00
2018-05-14T13:24:19.720Z,4.67
2018-05-14T13:26:47.959Z,5.20
2018-05-14T13:29:16.236Z,4.40
2018-05-14T13:31:44.524Z,5.23
2018-05-14T13:34:12.776Z,4.53
2018-05-14T13:36:41.051Z,6.33
2018-05-14T13:39:10.065Z,5.90
2018-05-14T13:41:38.376Z,6.13
2018-05-14T13:44:06.695Z,4.80
2018-05-14T13:46:34.948Z,5.97
2018-05-14T13:49:03.192Z,5.50
2018-05-14T13:51:31.468Z,5.30
2018-05-14T13:54:00.243Z,4.53
2018-05-14T13:56:28.659Z,4.13
2018-05-14T13:58:56.929Z,4.30
2018-05-14T14:01:25.174Z,4.10
2018-05-14T14:03:53.599Z,4.37
2018-05-14T14:06:22.044Z,4.17
2018-05-14T14:08:50.320Z,4.10
2018-05-14T14:11:18.584Z,3.90
2018-05-14T14:13:49.046Z,4.17
2018-05-14T14:16:17.267Z,3.50
2018-05-14T14:18:45.945Z,4.60
2018-05-14T14:21:14.976Z,3.53
2018-05-14T14:23:43.261Z,3.70
2018-05-14T14:26:11.484Z,3.20
2018-05-14T14:28:40.827Z,3.20
2018-05-14T14:31:09.084Z,3.30
2018-05-14T14:33:37.337Z,3.27
2018-05-14T14:36:05.697Z,2.70
2018-05-14T14:38:33.888Z,2.30
2018-05-14T14:41:02.128Z,2.97
2018-05-14T14:43:30.405Z,2.80
2018-05-14T14:45:58.658Z,3.03
2018-05-14T14:48:27.520Z,2.77
2018-05-14T14:50:55.875Z,2.13
2018-05-14T14:53:24.346Z,2.50
2018-05-14T14:55:52.572Z,2.60
2018-05-14T14:58:20.912Z,2.20
2018-05-14T15:00:49.087Z,2.40
2018-05-14T15:03:17.387Z,2.40
2018-05-14T15:05:46.430Z,9.30
2018-05-14T15:08:14.685Z,2.20
2018-05-14T15:10:42.913Z,2.60
2018-05-14T15:13:11.403Z,2.57
2018-05-14T15:15:39.642Z,2.87
2018-05-14T15:18:07.884Z,2.63
2018-05-14T15:20:36.991Z,3.27
2018-05-14T15:23:05.232Z,2.70
2018-05-14T15:25:33.523Z,2.70
2018-05-14T15:28:02.384Z,2.70
2018-05-14T15:30:30.628Z,3.00
2018-05-14T15:32:59.974Z,3.00
2018-05-14T15:35:28.280Z,3.40
2018-05-14T15:37:56.536Z,2.60
2018-05-14T15:40:25.572Z,3.10
2018-05-14T15:42:53.920Z,3.30
2018-05-14T15:45:22.172Z,2.83
2018-05-14T15:47:50.426Z,2.90
2018-05-14T15:50:18.695Z,2.73
2018-05-14T15:52:46.946Z,2.97
2018-05-14T15:55:15.188Z,2.67
2018-05-14T15:57:44.347Z,3.27
2018-05-14T16:00:12.595Z,3.00
2018-05-14T16:02:40.843Z,2.63
2018-05-14T16:05:09.152Z,2.77
2018-05-14T16:07:37.395Z,2.57
2018-05-14T16:10:06.411Z,2.93
2018-05-14T16:12:34.684Z,2.90
2018-05-14T16:15:02.936Z,2.83
2018-05-14T16:17:31.170Z,3.17
2018-05-14T16:20:00.816Z,3.10
2018-05-14T16:22:30.122Z,3.03
2018-05-14T16:24:59.134Z,3.27
2018-05-14T16:27:27.393Z,3.50
2018-05-14T16:29:55.636Z,3.10
2018-05-14T16:32:23.879Z,2.83
2018-05-14T16:34:52.147Z,3.10
2018-05-14T16:37:20.422Z,3.10
2018-05-14T16:39:48.652Z,3.10
2018-05-14T16:42:17.199Z,2.90
2018-05-14T16:44:45.456Z,3.30
2018-05-14T16:47:13.705Z,3.00
2018-05-14T16:49:41.984Z,3.30
2018-05-14T16:52:11.004Z,3.23
2018-05-14T16:54:39.247Z,2.83
2018-05-14T16:57:07.516Z,3.27
2018-05-14T16:59:35.761Z,2.97
2018-05-14T17:02:04.034Z,2.97
2018-05-14T17:04:32.612Z,2.40
2018-05-14T17:07:00.851Z,4.33
2018-05-14T17:09:29.488Z,3.20
2018-05-14T17:11:58.024Z,3.33
2018-05-14T17:14:27.084Z,2.77
2018-05-14T17:16:55.320Z,3.10
2018-05-14T17:19:23.921Z,3.50
2018-05-14T17:21:52.159Z,3.50
2018-05-14T17:24:21.806Z,3.70
2018-05-14T17:26:50.132Z,2.80
2018-05-14T17:29:20.038Z,2.93
2018-05-14T17:31:49.044Z,3.80
2018-05-14T17:34:18.072Z,3.50
2018-05-14T17:36:46.317Z,3.40
2018-05-14T17:39:14.567Z,3.97
2018-05-14T17:41:42.853Z,3.57
2018-05-14T17:44:11.209Z,3.83
2018-05-14T17:46:39.460Z,3.97
2018-05-14T17:49:08.121Z,3.40
2018-05-14T17:51:36.367Z,3.60
2018-05-14T17:54:04.694Z,4.17
2018-05-14T17:56:32.996Z,4.03
2018-05-14T17:59:01.224Z,3.50
2018-05-14T18:01:30.235Z,4.77
2018-05-14T18:03:58.508Z,7.80
2018-05-14T18:06:26.764Z,3.73
2018-05-14T18:08:55.004Z,3.60
2018-05-14T18:11:23.336Z,3.53
2018-05-14T18:13:51.592Z,3.20
2018-05-14T18:16:19.925Z,3.63
2018-05-14T18:18:48.184Z,3.50
2018-05-14T18:21:22.020Z,3.20
2018-05-14T18:23:51.084Z,3.30
2018-05-14T18:26:20.525Z,3.93
2018-05-14T18:28:48.783Z,3.97
2018-05-14T18:31:22.830Z,5.80
2018-05-14T18:33:53.980Z,3.70
2018-05-14T18:36:23.066Z,3.40
2018-05-14T18:38:51.345Z,3.57
2018-05-14T18:41:19.600Z,3.67
2018-05-14T18:43:47.890Z,3.67
2018-05-14T18:46:16.246Z,3.80
2018-05-14T18:48:44.487Z,3.67
2018-05-14T18:51:12.800Z,3.20
2018-05-14T18:53:41.187Z,2.80
2018-05-14T18:56:09.724Z,3.00
2018-05-14T18:58:38.208Z,2.77
2018-05-14T19:01:06.451Z,3.10
2018-05-14T19:03:34.708Z,3.27
2018-05-14T19:06:03.000Z,3.63
2018-05-14T19:08:31.247Z,3.80
2018-05-14T19:11:05.276Z,3.63
2018-05-14T19:13:33.534Z,3.00
2018-05-14T19:16:07.403Z,2.90
2018-05-14T19:18:35.692Z,3.07
2018-05-14T19:21:03.943Z,3.20
2018-05-14T19:23:38.832Z,3.40
2018-05-14T19:26:07.066Z,2.60
2018-05-14T19:28:41.544Z,3.10
2018-05-14T19:31:09.787Z,3.17
2018-05-14T19:33:43.751Z,2.60
2018-05-14T19:36:12.085Z,3.17
2018-05-14T19:38:40.410Z,3.20
2018-05-14T19:41:08.668Z,2.83
2018-05-14T19:43:36.928Z,2.90
2018-05-14T19:46:05.180Z,3.13
2018-05-14T19:48:33.573Z,3.50
2018-05-14T19:51:01.926Z,2.30
2018-05-14T19:53:30.068Z,3.77
2018-05-14T19:55:59.104Z,3.00
2018-05-14T19:58:27.365Z,4.10
2018-05-14T20:00:55.652Z,2.90
2018-05-14T20:03:23.886Z,3.43
2018-05-14T20:05:52.136Z,2.83
2018-05-14T20:08:20.733Z,2.93
2018-05-14T20:10:49.466Z,2.87
2018-05-14T20:13:17.752Z,3.67
2018-05-14T20:15:46.020Z,3.07
2018-05-14T20:18:14.294Z,3.60
2018-05-14T20:20:42.533Z,3.57
2018-05-14T20:23:11.561Z,3.40
2018-05-14T20:25:39.843Z,2.33
2018-05-14T20:28:08.092Z,2.80
2018-05-14T20:30:36.575Z,3.00
2018-05-14T20:33:05.668Z,3.27
2018-05-14T20:35:34.417Z,2.90
2018-05-14T20:38:02.669Z,3.20
2018-05-14T20:40:30.936Z,3.17
2018-05-14T20:42:59.298Z,3.37
2018-05-14T20:45:27.464Z,3.23
2018-05-14T20:47:56.618Z,3.17
2018-05-14T20:50:24.852Z,3.23
2018-05-14T20:52:53.104Z,2.70
2018-05-14T20:55:21.757Z,3.60
2018-05-14T20:57:49.984Z,3.30
2018-05-14T21:00:18.994Z,3.30
2018-05-14T21:02:47.267Z,3.10
2018-05-14T21:05:15.515Z,3.13
2018-05-14T21:07:44.520Z,3.00
2018-05-14T21:10:13.728Z,3.13
2018-05-14T21:12:41.976Z,3.17
2018-05-14T21:15:10.312Z,3.53
2018-05-14T21:17:39.759Z,3.87
2018-05-14T21:20:08.793Z,2.80
2018-05-14T21:22:37.044Z,2.90
2018-05-14T21:25:06.069Z,3.27
2018-05-14T21:27:35.403Z,3.37
2018-05-14T21:30:03.652Z,3.40
2018-05-14T21:32:32.216Z,3.13
2018-05-14T21:35:00.474Z,3.20
2018-05-14T21:37:28.716Z,2.70
2018-05-14T21:39:57.375Z,3.53
2018-05-14T21:42:25.644Z,3.40
2018-05-14T21:44:53.892Z,3.20
2018-05-14T21:47:22.200Z,3.77
2018-05-14T21:49:50.449Z,3.90
2018-05-14T21:52:18.730Z,2.97
2018-05-14T21:54:46.996Z,3.73
2018-05-14T21:57:16.007Z,3.60
2018-05-14T21:59:44.256Z,3.20
2018-05-14T22:02:12.712Z,3.80
2018-05-14T22:04:40.947Z,3.07
2018-05-14T22:07:09.200Z,3.40
2018-05-14T22:09:38.247Z,3.90
2018-05-14T22:12:06.496Z,3.87
2018-05-14T22:14:34.739Z,3.80
2018-05-14T22:17:03.020Z,3.60
2018-05-14T22:19:32.040Z,3.70
2018-05-14T22:22:00.296Z,4.40
2018-05-14T22:24:28.816Z,3.93
2018-05-14T22:26:57.075Z,3.43
2018-05-14T22:29:25.333Z,3.23
2018-05-14T22:31:53.596Z,3.90
2018-05-14T22:34:22.624Z,3.40
2018-05-14T22:36:50.859Z,3.33
2018-05-14T22:39:19.136Z,3.50
2018-05-14T22:41:47.403Z,3.47
2018-05-14T22:44:15.645Z,3.50
2018-05-14T22:46:44.089Z,3.40
2018-05-14T22:49:12.348Z,4.80
2018-05-14T22:51:41.368Z,4.00
2018-05-14T22:54:09.643Z,3.73
2018-05-14T22:56:37.887Z,3.60
2018-05-14T22:59:06.137Z,3.60
2018-05-14T23:01:34.417Z,3.57
2018-05-14T23:04:02.664Z,4.30
2018-05-14T23:06:30.915Z,3.60
2018-05-14T23:09:01.206Z,4.10
2018-05-14T23:11:29.444Z,3.80
2018-05-14T23:13:57.704Z,3.63
2018-05-14T23:16:25.963Z,3.80
2018-05-14T23:18:54.983Z,4.40
2018-05-14T23:29:59.589Z,3.93
2018-05-14T23:32:27.823Z,4.27
2018-05-14T23:34:57.108Z,3.50
2018-05-14T23:37:26.151Z,4.03
2018-05-14T23:39:54.392Z,4.00
2018-05-14T23:42:22.897Z,3.90
2018-05-14T23:44:51.175Z,4.20
2018-05-14T23:47:19.436Z,4.40
2018-05-14T23:49:47.676Z,4.63
2018-05-14T23:52:16.125Z,4.40
2018-05-14T23:54:44.382Z,4.00
2018-05-14T23:57:12.635Z,4.70
2018-05-14T23:59:40.908Z,4.10
